Time;durP1;ratioP1;P1;durP2;ratioP2;P2;SDS_P1;SDS_P2;PMS_P1;PMS_P2;Temp;Humidity;BMP_temperature;BMP_pressure;BME280_temperature;BME280_humidity;BME280_pressure;Samples;Min_cycle;Max_cycle;Signal;HPM_P1;HPM_P2
2022/05/09 00:00:28;;;;;;;14.85;9.05;;;;;;;16.93;74.25;101798.91;4985599;28;20355;-84
2022/05/09 00:02:55;;;;;;;12.75;8.88;;;;;;;16.83;73.99;101782.88;4985142;28;20059;-85
2022/05/09 00:05:26;;;;;;;12.05;9.43;;;;;;;16.58;74.00;101741.47;4987156;28;20472;-85
2022/05/09 00:07:53;;;;;;;13.00;9.00;;;;;;;16.48;74.25;101719.25;4988907;28;20312;-85
2022/05/09 00:10:24;;;;;;;12.10;9.07;;;;;;;16.45;74.43;101712.31;4990106;28;20707;-84
2022/05/09 00:12:51;;;;;;;10.18;9.20;;;;;;;16.02;74.05;101649.47;4988898;28;20057;-84
2022/05/09 00:15:19;;;;;;;13.30;8.48;;;;;;;16.94;74.13;101789.03;4988863;28;20481;-84
2022/05/09 00:17:46;;;;;;;9.35;8.20;;;;;;;16.93;73.41;101777.47;4990477;28;20038;-84
2022/05/09 00:20:16;;;;;;;9.15;8.23;;;;;;;16.97;73.64;101778.03;4988625;28;20141;-84
2022/05/09 00:22:55;;;;;;;9.27;8.25;;;;;;;16.83;72.23;101748.00;4988808;28;20268;-84
2022/05/09 00:25:24;;;;;;;8.63;7.82;;;;;;;16.85;72.78;101742.50;5004797;28;20068;-84
2022/05/09 00:27:52;;;;;;;9.52;8.63;;;;;;;15.73;73.10;101552.34;4994303;28;20042;-84
2022/05/09 00:30:19;;;;;;;10.07;8.02;;;;;;;17.02;71.96;101765.00;4990414;28;20046;-83
2022/05/09 00:32:46;;;;;;;9.70;7.85;;;;;;;16.98;73.14;101767.13;4988455;28;20054;-85
2022/05/09 00:35:14;;;;;;;10.88;8.55;;;;;;;16.70;73.01;101723.38;4988805;28;20050;-84
2022/05/09 00:37:41;;;;;;;11.30;8.27;;;;;;;16.85;73.12;101751.41;4989766;28;20492;-84
2022/05/09 00:40:10;;;;;;;11.18;7.75;;;;;;;16.70;73.19;101723.38;4988536;28;20455;-84
2022/05/09 00:42:40;;;;;;;8.40;7.22;;;;;;;16.96;73.01;101770.97;4989926;28;20374;-84
2022/05/09 00:45:08;;;;;;;14.57;8.45;;;;;;;16.95;72.85;101770.13;4988307;28;20056;-84
2022/05/09 00:47:35;;;;;;;9.00;8.07;;;;;;;16.76;72.63;101741.53;4988671;28;20043;-84
2022/05/09 00:50:05;;;;;;;9.07;7.65;;;;;;;16.73;72.21;101731.09;4987976;28;20062;-84
2022/05/09 00:52:40;;;;;;;9.10;7.80;;;;;;;16.88;72.09;101769.88;4989475;28;20078;-84
2022/05/09 00:55:18;;;;;;;9.65;7.50;;;;;;;16.75;71.54;101742.53;4988019;28;20050;-83
2022/05/09 00:57:52;;;;;;;8.85;7.43;;;;;;;16.48;71.31;101687.09;4988107;28;20058;-83
2022/05/09 01:00:22;;;;;;;12.25;7.47;;;;;;;16.34;70.85;101664.28;4987886;28;20093;-81
2022/05/09 01:02:55;;;;;;;10.93;7.85;;;;;;;16.87;71.13;101759.31;4987791;28;20058;-82
2022/05/09 01:05:22;;;;;;;11.98;7.57;;;;;;;16.52;70.95;101703.69;4988938;28;20057;-84
2022/05/09 01:07:48;;;;;;;9.70;7.93;;;;;;;16.42;71.59;101688.50;4988140;28;20109;-84
2022/05/09 01:10:16;;;;;;;10.00;8.27;;;;;;;16.72;71.26;101747.34;4989155;28;20452;-84
2022/05/09 01:12:45;;;;;;;15.13;7.50;;;;;;;16.72;71.41;101753.53;4987782;28;20515;-84
2022/05/09 01:15:16;;;;;;;8.55;6.90;;;;;;;16.68;71.90;101765.56;4989191;28;20440;-84
2022/05/09 01:17:47;;;;;;;8.65;7.93;;;;;;;16.67;71.78;101753.13;4986825;28;20057;-84
2022/05/09 01:20:15;;;;;;;8.43;7.63;;;;;;;15.36;72.13;101543.28;4989292;28;20054;-83
2022/05/09 01:22:42;;;;;;;14.20;8.70;;;;;;;16.63;72.38;101766.00;4987647;28;20149;-83
2022/05/09 01:25:12;;;;;;;11.02;7.88;;;;;;;16.17;72.13;101691.88;4987778;28;20054;-83
2022/05/09 01:27:42;;;;;;;9.60;8.18;;;;;;;16.44;72.55;101745.47;4987720;28;20054;-83
2022/05/09 01:30:22;;;;;;;11.32;8.27;;;;;;;16.20;72.79;101711.16;5005412;28;20522;-84
2022/05/09 01:32:53;;;;;;;8.88;8.05;;;;;;;16.30;72.44;101731.72;5008140;28;20123;-84
2022/05/09 01:35:38;;;;;;;12.52;8.68;;;;;;;16.47;72.81;101763.09;5007027;28;20104;-84
2022/05/09 01:38:23;;;;;;;9.68;8.20;;;;;;;16.12;73.18;101718.25;5008180;28;20050;-84
2022/05/09 01:40:50;;;;;;;9.70;8.20;;;;;;;16.43;72.88;101775.97;5008225;28;20050;-83
2022/05/09 01:43:37;;;;;;;9.98;8.68;;;;;;;16.53;71.71;101781.28;5007156;28;20180;-84
2022/05/09 01:46:08;;;;;;;12.13;8.13;;;;;;;16.36;72.26;101753.41;5006865;28;20053;-84
2022/05/09 01:51:24;;;;;;;10.02;8.75;;;;;;;16.44;72.27;101776.81;5008334;28;20058;-83
2022/05/09 01:53:52;;;;;;;11.90;7.82;;;;;;;16.23;72.40;101732.28;5007814;28;20056;-83
2022/05/09 01:56:25;;;;;;;11.27;8.18;;;;;;;16.17;71.28;101716.81;5006903;28;20141;-84
2022/05/09 01:58:52;;;;;;;13.30;8.40;;;;;;;16.46;70.83;101764.09;5007519;28;20060;-84
2022/05/09 02:01:21;;;;;;;8.07;7.35;;;;;;;16.38;71.66;101751.44;5008192;28;20049;-84
2022/05/09 02:03:49;;;;;;;9.10;7.75;;;;;;;16.48;71.79;101777.34;5010153;28;20046;-83
2022/05/09 02:06:17;;;;;;;9.32;7.28;;;;;;;16.37;70.70;101744.38;5014326;28;20125;-82
2022/05/09 02:08:45;;;;;;;13.65;7.60;;;;;;;16.27;70.73;101732.03;5012975;28;20316;-84
2022/05/09 02:11:11;;;;;;;8.90;7.88;;;;;;;15.89;71.09;101681.06;5009573;28;20089;-84
2022/05/09 02:13:38;;;;;;;10.73;7.95;;;;;;;16.48;71.34;101782.69;5007772;28;20064;-84
2022/05/09 02:16:05;;;;;;;11.57;8.32;;;;;;;16.43;71.73;101775.97;5007257;28;20420;-84
2022/05/09 02:18:33;;;;;;;9.15;8.23;;;;;;;15.76;70.91;101659.97;5008082;28;20049;-82
2022/05/09 02:21:00;;;;;;;7.85;7.10;;;;;;;16.39;70.29;101752.28;5007227;28;20100;-82
2022/05/09 02:23:26;;;;;;;8.48;6.97;;;;;;;16.48;70.96;101769.31;5007241;28;20045;-82
2022/05/09 02:25:53;;;;;;;9.25;7.90;;;;;;;16.26;70.89;101751.75;5007390;28;20049;-83
2022/05/09 02:28:21;;;;;;;9.93;7.45;;;;;;;16.17;70.68;101732.06;5001767;28;20514;-83
2022/05/09 02:30:48;;;;;;;13.40;8.27;;;;;;;16.31;71.28;101766.41;5006098;28;20490;-83
2022/05/09 02:33:15;;;;;;;9.07;8.18;;;;;;;16.20;71.17;101747.81;5007097;28;20567;-84
2022/05/09 02:35:42;;;;;;;8.20;7.13;;;;;;;16.31;71.50;101771.78;5006107;28;20411;-83
2022/05/09 02:38:10;;;;;;;13.18;8.50;;;;;;;16.34;71.48;101778.69;5006961;28;20384;-85
2022/05/09 02:40:37;;;;;;;8.55;7.63;;;;;;;16.35;71.08;101775.84;5022202;28;20045;-85
2022/05/09 02:43:04;;;;;;;8.27;7.47;;;;;;;16.13;70.94;101736.84;5007143;28;20050;-84
2022/05/09 02:45:31;;;;;;;14.23;7.85;;;;;;;16.24;71.20;101754.59;5005833;28;20068;-84
2022/05/09 02:47:58;;;;;;;10.10;8.27;;;;;;;16.24;70.93;101754.59;5005671;28;20519;-83
2022/05/09 02:50:25;;;;;;;9.38;8.05;;;;;;;16.16;70.66;101749.09;5005587;28;20078;-83
2022/05/09 02:52:53;;;;;;;14.40;8.88;;;;;;;16.24;70.42;101754.59;5005792;28;20050;-83
2022/05/09 02:55:21;;;;;;;11.45;8.27;;;;;;;15.91;70.39;101695.16;5005481;28;20054;-83
2022/05/09 02:57:49;;;;;;;9.73;8.63;;;;;;;16.03;70.91;101739.53;5005377;28;20085;-83
2022/05/09 03:00:24;;;;;;;9.48;7.70;;;;;;;16.14;70.36;101738.53;5005547;28;20046;-83
2022/05/09 03:05:41;;;;;;;18.30;8.73;;;;;;;16.49;69.76;101781.72;5006528;28;20058;-83
2022/05/09 03:08:09;;;;;;;11.65;8.93;;;;;;;15.95;70.41;101726.03;5007282;28;20046;-84
2022/05/09 03:10:37;;;;;;;11.95;8.20;;;;;;;16.29;70.33;101788.97;5021977;28;20125;-83
2022/05/09 03:13:07;;;;;;;9.57;8.57;;;;;;;16.29;70.50;101797.88;5006101;28;20062;-83
2022/05/09 03:15:35;;;;;;;11.40;8.43;;;;;;;16.41;69.84;101795.88;5005606;28;20054;-82
2022/05/09 03:18:03;;;;;;;9.88;7.97;;;;;;;16.24;70.36;101787.59;5021731;28;20128;-83
2022/05/09 03:20:31;;;;;;;10.52;8.85;;;;;;;16.23;70.85;101790.38;5005476;28;20046;-83
2022/05/09 03:22:57;;;;;;;8.75;7.93;;;;;;;16.28;70.54;101798.84;5006762;28;20085;-83
2022/05/09 03:25:24;;;;;;;14.13;8.45;;;;;;;16.08;70.60;101770.41;5021844;28;20065;-83
2022/05/09 03:27:51;;;;;;;9.30;8.27;;;;;;;16.03;70.90;101757.44;5002032;28;20428;-84
2022/05/09 03:30:19;;;;;;;12.80;9.27;;;;;;;15.90;70.81;101730.97;4986945;28;20061;-84
2022/05/09 03:32:47;;;;;;;11.40;9.23;;;;;;;16.27;70.62;101802.53;4985823;28;20058;-84
2022/05/09 03:35:14;;;;;;;12.38;9.32;;;;;;;16.26;70.46;101792.78;4985304;28;20042;-83
2022/05/09 03:37:41;;;;;;;13.55;9.02;;;;;;;16.24;70.86;101800.13;4986904;28;20141;-83
2022/05/09 03:40:09;;;;;;;18.10;10.05;;;;;;;16.29;70.24;101795.19;4986499;28;20492;-83
2022/05/09 03:42:36;;;;;;;12.85;10.60;;;;;;;16.01;69.83;101741.50;4987297;28;20046;-83
2022/05/09 03:45:04;;;;;;;10.27;8.95;;;;;;;16.09;70.57;101774.78;4985845;28;20057;-83
2022/05/09 03:47:31;;;;;;;12.75;10.48;;;;;;;16.26;70.65;101808.84;4986831;28;20508;-83
2022/05/09 03:49:57;;;;;;;13.98;9.68;;;;;;;15.75;70.63;101733.25;4986911;28;20058;-84
2022/05/09 03:52:25;;;;;;;10.77;9.68;;;;;;;15.93;70.78;101773.53;4986732;28;21004;-84
2022/05/09 03:54:52;;;;;;;12.50;9.80;;;;;;;15.52;70.59;101705.91;4986998;28;20128;-84
2022/05/09 03:57:19;;;;;;;11.60;10.35;;;;;;;15.82;71.09;101771.00;4985732;28;20055;-85
2022/05/09 03:59:45;;;;;;;13.02;10.48;;;;;;;15.90;70.82;101795.25;5002436;28;20065;-83
2022/05/09 04:02:12;;;;;;;12.95;11.50;;;;;;;15.79;70.75;101782.84;4990359;28;20432;-85
2022/05/09 04:04:39;;;;;;;12.57;10.40;;;;;;;15.69;71.59;101781.13;4992455;28;20460;-84
2022/05/09 04:07:05;;;;;;;17.58;11.15;;;;;;;15.88;71.41;101813.28;5003583;28;20046;-85
2022/05/09 04:09:32;;;;;;;11.68;10.43;;;;;;;15.78;71.41;101801.75;4988128;28;20053;-84
2022/05/09 04:11:59;;;;;;;17.10;11.65;;;;;;;15.91;70.96;101821.03;4988265;28;20089;-86
2022/05/09 04:17:11;;;;;;;13.15;11.35;;;;;;;15.83;72.10;101823.59;4989664;28;20527;-82
2022/05/09 04:19:38;;;;;;;18.25;11.48;;;;;;;15.66;71.40;101781.44;4988486;28;20046;-84
2022/05/09 04:22:06;;;;;;;17.27;10.73;;;;;;;15.97;71.69;101835.69;4987093;28;20055;-84
2022/05/09 04:24:33;;;;;;;13.48;10.73;;;;;;;15.79;71.79;101800.75;4999885;28;20061;-83
2022/05/09 04:27:01;;;;;;;11.75;10.65;;;;;;;15.92;72.10;101841.50;4988377;28;20468;-83
2022/05/09 04:29:28;;;;;;;12.52;11.02;;;;;;;15.85;71.77;101826.97;4990738;28;20050;-83
2022/05/09 04:31:55;;;;;;;16.75;12.25;;;;;;;16.08;70.97;101845.41;5001987;28;20058;-84
2022/05/09 04:34:22;;;;;;;12.60;10.82;;;;;;;15.91;71.22;101833.59;5006562;28;20062;-83
2022/05/09 04:36:48;;;;;;;13.80;12.32;;;;;;;15.84;71.44;101827.09;4990605;28;20053;-83
2022/05/09 04:39:16;;;;;;;16.48;12.20;;;;;;;15.97;71.78;101838.34;4989607;28;20060;-82
2022/05/09 04:41:43;;;;;;;13.52;12.07;;;;;;;15.88;71.63;101829.34;4989022;28;20038;-84
2022/05/09 04:44:10;;;;;;;14.57;11.68;;;;;;;15.80;71.70;101826.53;4984803;28;20046;-85
2022/05/09 04:46:36;;;;;;;14.23;12.40;;;;;;;15.80;71.59;101832.75;4985016;28;20061;-84
2022/05/09 04:49:03;;;;;;;19.77;12.13;;;;;;;15.95;71.28;101853.75;4984767;28;20081;-84
2022/05/09 04:51:30;;;;;;;18.48;12.60;;;;;;;15.87;72.14;101858.94;4999766;28;20474;-83
2022/05/09 04:53:57;;;;;;;13.75;12.35;;;;;;;15.76;71.60;101835.84;4986818;28;20043;-84
2022/05/09 04:56:24;;;;;;;15.43;12.75;;;;;;;15.86;71.73;101852.75;4987784;28;20129;-83
2022/05/09 04:58:51;;;;;;;16.38;12.70;;;;;;;15.89;72.06;101867.69;4987994;28;20402;-83
2022/05/09 05:01:17;;;;;;;16.67;12.40;;;;;;;15.95;72.36;101870.66;4986684;28;20060;-83
2022/05/09 05:03:44;;;;;;;17.60;14.15;;;;;;;16.06;72.20;101884.88;4987582;28;20054;-82
2022/05/09 05:06:11;;;;;;;18.75;13.13;;;;;;;15.85;72.05;101859.09;4986548;28;20061;-81
2022/05/09 05:08:38;;;;;;;15.68;12.80;;;;;;;15.94;71.63;101865.44;4986520;28;20054;-83
2022/05/09 05:11:05;;;;;;;16.52;13.07;;;;;;;15.97;71.83;101871.38;4986277;28;20050;-83
2022/05/09 05:13:35;;;;;;;16.73;12.82;;;;;;;15.59;72.10;101814.09;4986535;28;20058;-83
2022/05/09 05:16:02;;;;;;;18.77;14.88;;;;;;;16.09;71.45;101884.59;5003006;28;20054;-84
2022/05/09 05:18:30;;;;;;;21.15;14.27;;;;;;;16.10;71.22;101879.09;4987943;28;20054;-84
2022/05/09 05:20:57;;;;;;;15.32;12.63;;;;;;;15.95;72.04;101870.66;4988016;28;20070;-83
2022/05/09 05:23:24;;;;;;;17.95;14.18;;;;;;;15.63;72.57;101825.34;4987645;28;20145;-84
2022/05/09 05:25:51;;;;;;;17.85;14.02;;;;;;;15.92;72.61;101873.63;4986414;28;20066;-82
2022/05/09 05:28:19;;;;;;;16.60;13.90;;;;;;;15.56;72.11;101809.03;4991297;28;20049;-84
2022/05/09 05:30:47;;;;;;;19.15;14.13;;;;;;;15.94;71.80;101858.22;4986385;28;20057;-82
2022/05/09 05:33:15;;;;;;;18.20;13.50;;;;;;;16.02;72.22;101878.97;4987637;28;20051;-84
2022/05/09 05:35:42;;;;;;;18.17;13.77;;;;;;;16.00;72.04;101868.41;4986588;28;20460;-83
2022/05/09 05:38:09;;;;;;;16.58;14.25;;;;;;;16.24;71.09;101875.16;4988261;28;20274;-83
2022/05/09 05:40:35;;;;;;;16.13;13.23;;;;;;;15.95;71.26;101851.91;4986889;28;20064;-83
2022/05/09 05:43:02;;;;;;;20.05;14.15;;;;;;;16.08;71.45;101872.19;4987886;28;20076;-82
2022/05/09 05:45:29;;;;;;;15.63;13.98;;;;;;;15.98;71.58;101872.19;5002211;28;20058;-83
2022/05/09 05:47:55;;;;;;;15.85;14.13;;;;;;;15.97;71.63;101855.28;4986411;28;20073;-83
2022/05/09 05:50:23;;;;;;;17.40;15.23;;;;;;;16.28;71.59;101900.66;4986025;28;20060;-82
2022/05/09 05:52:52;;;;;;;18.30;15.63;;;;;;;16.34;71.24;101883.19;4987015;28;20061;-84
2022/05/09 05:55:19;;;;;;;17.67;13.73;;;;;;;16.30;70.54;101869.22;4985667;28;20058;-83
2022/05/09 05:57:47;;;;;;;26.33;16.23;;;;;;;16.39;70.74;101897.00;4985063;28;20120;-83
2022/05/09 06:00:22;;;;;;;20.60;15.82;;;;;;;16.62;70.54;101892.16;4985407;28;20066;-84
2022/05/09 06:02:50;;;;;;;21.27;14.98;;;;;;;16.41;70.53;101887.81;5001129;28;20055;-84
2022/05/09 06:05:18;;;;;;;19.13;15.60;;;;;;;16.20;70.45;101842.44;4986050;28;20042;-83
2022/05/09 06:07:47;;;;;;;22.33;15.80;;;;;;;16.68;70.21;101896.94;5001321;28;20420;-84
2022/05/09 06:10:16;;;;;;;19.73;15.27;;;;;;;16.59;70.24;101882.56;4976927;28;20056;-84
2022/05/09 06:12:43;;;;;;;20.10;15.27;;;;;;;15.82;70.13;101744.22;5000917;28;20153;-84
2022/05/09 06:15:28;;;;;;;18.85;15.55;;;;;;;16.61;70.00;101877.06;4985787;28;20061;-85
2022/05/09 06:17:57;;;;;;;18.77;15.63;;;;;;;16.79;69.94;101904.84;4985819;28;20576;-84
2022/05/09 06:20:26;;;;;;;21.63;15.75;;;;;;;16.62;69.76;101873.38;5000772;28;20424;-84
2022/05/09 06:22:56;;;;;;;17.08;15.23;;;;;;;15.89;69.69;101745.34;5001116;28;20378;-86
2022/05/09 06:25:23;;;;;;;21.95;15.98;;;;;;;16.96;68.87;101913.13;4985099;28;20420;-84
2022/05/09 06:27:51;;;;;;;18.60;15.80;;;;;;;16.68;69.47;101894.25;4992384;28;20534;-84
2022/05/09 06:30:20;;;;;;;17.58;15.25;;;;;;;16.95;69.45;101928.38;4989290;28;20053;-85
2022/05/09 06:32:47;;;;;;;19.27;16.63;;;;;;;16.41;69.41;101857.50;4989788;28;20420;-84
2022/05/09 06:35:20;;;;;;;21.55;16.20;;;;;;;16.35;69.08;101832.09;4985042;28;20062;-84
2022/05/09 06:37:49;;;;;;;17.90;15.98;;;;;;;16.79;69.48;101920.91;4986439;28;20141;-85
2022/05/09 06:40:16;;;;;;;20.10;16.40;;;;;;;16.68;69.66;101899.63;5001043;28;20133;-82
2022/05/09 06:42:43;;;;;;;17.67;15.75;;;;;;;16.35;70.36;101869.63;4984296;28;20728;-83
2022/05/09 06:45:10;;;;;;;18.48;15.90;;;;;;;15.90;69.49;101768.47;4984790;28;20054;-84
2022/05/09 06:47:47;;;;;;;17.77;15.98;;;;;;;16.81;70.40;101932.34;4984846;28;20157;-83
2022/05/09 06:50:19;;;;;;;18.10;16.27;;;;;;;16.05;70.52;101802.84;4985767;28;20057;-85
2022/05/09 06:52:46;;;;;;;20.52;16.42;;;;;;;16.61;69.97;101885.13;4984446;28;20528;-83
2022/05/09 06:55:33;;;;;;;18.75;16.90;;;;;;;16.83;69.59;101900.88;4984677;28;20061;-84
2022/05/09 06:58:04;;;;;;;20.55;15.43;;;;;;;16.54;69.75;101851.81;4986225;28;20054;-84
2022/05/09 07:00:39;;;;;;;22.95;16.35;;;;;;;17.27;69.39;101954.81;4986472;28;20120;-84
2022/05/09 07:03:06;;;;;;;20.27;15.85;;;;;;;17.09;69.61;101927.06;4984203;28;20416;-83
2022/05/09 07:05:33;;;;;;;23.15;17.08;;;;;;;17.19;68.72;101930.56;5016973;28;20153;-84
2022/05/09 07:08:00;;;;;;;18.30;16.25;;;;;;;17.21;69.20;101936.63;4985673;28;20424;-83
2022/05/09 07:10:28;;;;;;;18.15;16.33;;;;;;;17.15;69.27;101925.63;4984660;28;20047;-83
2022/05/09 07:12:56;;;;;;;18.92;16.92;;;;;;;17.30;67.95;101930.34;5000735;28;20058;-83
2022/05/09 07:15:26;;;;;;;18.98;16.25;;;;;;;17.51;67.60;101938.16;4999754;28;20073;-84
2022/05/09 07:17:54;;;;;;;18.20;16.30;;;;;;;17.62;67.21;101955.94;4983888;28;20056;-85
2022/05/09 07:20:25;;;;;;;17.10;15.38;;;;;;;17.47;67.70;101949.34;4982958;28;20628;-82
2022/05/09 07:22:55;;;;;;;21.40;16.55;;;;;;;16.88;68.57;101865.56;4981089;28;20051;-83
2022/05/09 07:25:24;;;;;;;20.00;16.42;;;;;;;17.50;67.99;101959.78;4977979;28;20062;-83
2022/05/09 07:27:54;;;;;;;21.25;16.50;;;;;;;17.52;67.28;101964.03;5004692;28;20053;-84
2022/05/09 07:30:23;;;;;;;20.45;17.40;;;;;;;17.42;67.99;101938.22;5003481;28;20049;-82
2022/05/09 07:32:52;;;;;;;19.10;17.17;;;;;;;17.37;67.54;101921.72;5003281;28;20053;-83
2022/05/09 07:35:19;;;;;;;20.35;17.63;;;;;;;17.42;67.12;101919.41;5003679;28;20060;-83
2022/05/09 07:37:46;;;;;;;20.20;18.02;;;;;;;17.66;67.07;101956.47;5004762;28;20046;-84
2022/05/09 07:40:15;;;;;;;25.55;16.65;;;;;;;17.87;67.45;101973.19;5003680;28;20064;-84
2022/05/09 07:42:44;;;;;;;21.30;17.48;;;;;;;17.63;67.47;101919.16;5003495;28;20064;-84
2022/05/09 07:45:13;;;;;;;25.05;17.00;;;;;;;18.01;67.37;101966.47;5003638;28;20061;-83
2022/05/09 07:47:41;;;;;;;23.17;17.35;;;;;;;17.56;67.32;101891.22;5004780;28;20423;-84
2022/05/09 07:50:10;;;;;;;17.77;15.73;;;;;;;17.96;67.61;101935.66;5003702;28;20064;-84
2022/05/09 07:52:37;;;;;;;18.63;16.58;;;;;;;18.10;66.85;101944.03;5011215;28;20088;-84
2022/05/09 07:55:07;;;;;;;24.20;18.42;;;;;;;18.26;66.43;101937.13;5017388;28;20046;-83
2022/05/09 07:57:34;;;;;;;18.70;16.70;;;;;;;18.08;67.08;101924.56;5019223;28;20065;-84
2022/05/09 08:00:01;;;;;;;18.98;16.98;;;;;;;18.17;67.66;101925.44;5017677;28;20084;-83
2022/05/09 08:02:28;;;;;;;19.35;16.90;;;;;;;17.87;67.23;101876.47;5004047;28;20077;-83
2022/05/09 08:04:56;;;;;;;24.98;17.30;;;;;;;18.52;67.30;101970.31;5003710;28;20049;-83
2022/05/09 08:07:23;;;;;;;19.92;17.38;;;;;;;18.48;66.54;101941.19;5003534;28;20053;-84
2022/05/09 08:09:49;;;;;;;22.58;17.83;;;;;;;18.20;65.83;101868.69;5004944;28;20127;-83
2022/05/09 08:12:16;;;;;;;19.35;17.25;;;;;;;18.00;66.09;101848.38;5003123;28;20053;-84
2022/05/09 08:14:43;;;;;;;20.58;17.17;;;;;;;18.82;66.15;101965.50;5003236;28;20046;-85
2022/05/09 08:17:11;;;;;;;20.77;14.77;;;;;;;18.92;65.74;101966.25;5003233;28;20050;-85
2022/05/09 08:19:39;;;;;;;16.35;14.63;;;;;;;17.82;64.78;101778.56;5003249;28;20053;-84
2022/05/09 08:22:07;;;;;;;17.95;15.25;;;;;;;18.99;64.57;101978.06;4984792;28;20098;-83
2022/05/09 08:24:41;;;;;;;19.17;14.70;;;;;;;18.95;64.85;101959.69;4984960;28;20508;-84
2022/05/09 08:27:08;;;;;;;18.60;14.63;;;;;;;19.07;64.88;101954.91;4986101;28;20054;-84
2022/05/09 08:29:34;;;;;;;20.50;15.38;;;;;;;19.29;64.94;101977.72;4992222;28;20050;-83
2022/05/09 08:32:01;;;;;;;16.65;14.85;;;;;;;19.31;64.46;101976.56;5003182;28;20050;-84
2022/05/09 08:34:28;;;;;;;20.17;14.75;;;;;;;19.27;63.88;101948.25;5003047;28;20057;-83
2022/05/09 08:36:55;;;;;;;16.23;14.55;;;;;;;18.65;64.27;101846.16;4986966;28;20058;-83
2022/05/09 08:39:24;;;;;;;18.10;16.10;;;;;;;19.27;64.88;101942.03;4987892;28;20046;-84
2022/05/09 08:42:04;;;;;;;16.75;14.38;;;;;;;19.70;64.08;101984.16;4988896;28;20134;-83
2022/05/09 08:44:37;;;;;;;17.67;15.02;;;;;;;19.55;64.71;101983.06;4990254;28;20078;-84
2022/05/09 08:47:25;;;;;;;16.05;14.35;;;;;;;19.55;64.94;101981.22;4989752;28;20518;-85
2022/05/09 08:49:55;;;;;;;17.75;15.85;;;;;;;19.62;64.26;101986.81;4986718;28;20053;-85
2022/05/09 08:52:42;;;;;;;15.27;13.43;;;;;;;19.72;64.07;101984.00;4986430;28;20427;-85
2022/05/09 08:55:12;;;;;;;15.75;13.95;;;;;;;19.37;63.94;101918.53;4986704;28;20112;-84
2022/05/09 08:57:47;;;;;;;15.02;13.25;;;;;;;19.61;63.65;101936.63;4986915;28;20645;-85
2022/05/09 09:00:17;;;;;;;17.00;14.50;;;;;;;19.98;63.22;101975.84;4986639;28;20057;-83
2022/05/09 09:03:24;;;;;;;15.18;13.63;;;;;;;19.87;63.13;101966.19;4986247;28;20065;-81
2022/05/09 09:05:57;;;;;;;15.63;14.02;;;;;;;19.87;63.91;101976.16;4986849;28;20521;-84
2022/05/09 09:08:37;;;;;;;17.25;13.23;;;;;;;20.02;63.32;101987.97;4986369;28;20145;-84
2022/05/09 09:11:24;;;;;;;17.60;13.77;;;;;;;20.04;63.07;101983.25;4986265;28;20316;-85
2022/05/09 09:14:29;;;;;;;16.15;14.35;;;;;;;20.18;61.90;101990.69;4986652;28;20061;-85
2022/05/09 09:17:01;;;;;;;19.67;15.30;;;;;;;20.18;62.28;101952.13;4978999;28;20054;-82
2022/05/09 09:19:50;;;;;;;15.98;14.05;;;;;;;20.42;61.85;101989.06;4986552;28;20054;-84
2022/05/09 09:22:25;;;;;;;17.20;13.57;;;;;;;20.38;62.66;101974.22;4986542;28;20058;-84
2022/05/09 09:25:26;;;;;;;16.40;14.10;;;;;;;20.59;62.66;101988.06;5002582;28;20401;-84
2022/05/09 09:28:00;;;;;;;17.63;13.93;;;;;;;20.76;61.62;101993.47;4990966;28;20204;-84
2022/05/09 09:30:27;;;;;;;16.98;13.50;;;;;;;20.77;61.85;101974.38;5022073;28;20049;-84
2022/05/09 09:33:04;;;;;;;18.65;13.88;;;;;;;20.96;61.22;101981.28;5022026;28;20053;-85
2022/05/09 09:35:56;;;;;;;16.10;14.23;;;;;;;21.02;61.12;101990.53;5005462;28;20050;-85
2022/05/09 09:38:57;;;;;;;15.20;13.52;;;;;;;21.18;61.17;101987.81;5000909;28;20050;-84
2022/05/09 09:41:31;;;;;;;15.70;13.97;;;;;;;21.08;60.83;101981.78;5005247;28;20053;-86
2022/05/09 09:44:19;;;;;;;14.98;12.43;;;;;;;21.20;60.38;101993.91;5006553;28;20320;-85
2022/05/09 09:47:08;;;;;;;12.82;11.25;;;;;;;21.33;58.19;101980.69;5005222;28;20432;-83
2022/05/09 09:49:43;;;;;;;12.98;11.27;;;;;;;21.47;58.50;101987.25;5006653;28;20119;-84
2022/05/09 09:52:31;;;;;;;16.17;12.18;;;;;;;21.64;58.62;101984.50;5004999;28;20565;-84
2022/05/09 09:55:07;;;;;;;12.80;11.25;;;;;;;21.54;58.04;101961.22;5005150;28;20050;-84
2022/05/09 09:57:36;;;;;;;12.63;11.43;;;;;;;21.42;58.81;101951.81;5004990;28;20054;-85
2022/05/09 10:00:34;;;;;;;12.88;11.68;;;;;;;21.67;57.65;101978.72;5006093;28;20061;-84
2022/05/09 10:03:20;;;;;;;17.45;12.60;;;;;;;21.86;56.89;101974.75;5001864;28;20145;-84
2022/05/09 10:05:49;;;;;;;13.43;11.35;;;;;;;21.88;58.27;101973.53;5003176;28;20046;-83
2022/05/09 10:08:38;;;;;;;20.83;13.23;;;;;;;22.01;56.95;101974.81;5006191;28;20534;-84
2022/05/09 10:11:24;;;;;;;14.30;11.32;;;;;;;21.97;56.94;101931.09;5006133;28;20127;-85
2022/05/09 10:13:54;;;;;;;12.25;11.05;;;;;;;21.97;57.52;101902.19;5004584;28;20050;-84
2022/05/09 10:16:26;;;;;;;12.43;11.13;;;;;;;22.60;56.56;101961.56;5004604;28;20523;-84
2022/05/09 10:18:53;;;;;;;12.20;11.00;;;;;;;22.63;56.27;101938.72;4998682;28;20094;-85
2022/05/09 10:24:50;;;;;;;16.73;11.18;;;;;;;22.92;55.78;101929.78;4986205;28;20050;-83
2022/05/09 10:27:31;;;;;;;18.05;12.65;;;;;;;23.12;56.14;101960.72;4985357;28;20600;-83
2022/05/09 10:29:59;;;;;;;13.25;11.48;;;;;;;22.92;55.42;101918.97;4989006;28;20056;-83
2022/05/09 10:32:32;;;;;;;14.90;12.30;;;;;;;22.87;54.71;101886.19;5000790;28;20042;-83
2022/05/09 10:35:05;;;;;;;12.75;11.05;;;;;;;23.18;54.67;101954.56;4984907;28;20571;-84
2022/05/09 10:37:47;;;;;;;11.85;10.75;;;;;;;23.11;53.49;101953.63;5000850;28;20064;-82
2022/05/09 10:40:22;;;;;;;10.82;9.73;;;;;;;23.14;55.16;101950.53;5000611;28;20041;-85
2022/05/09 10:42:56;;;;;;;11.13;10.07;;;;;;;22.84;53.03;101884.66;5002351;28;20057;-83
2022/05/09 10:45:28;;;;;;;13.05;9.85;;;;;;;23.17;53.58;101958.28;4986488;28;20057;-84
2022/05/09 10:48:28;;;;;;;12.25;9.48;;;;;;;23.17;53.69;101938.50;4997914;28;20061;-84
2022/05/09 10:51:02;;;;;;;9.95;9.02;;;;;;;23.29;54.16;101955.13;4984521;28;20062;-83
2022/05/09 10:53:39;;;;;;;11.25;8.32;;;;;;;23.05;52.10;101911.03;4984311;28;20141;-83
2022/05/09 10:56:13;;;;;;;7.60;6.90;;;;;;;22.99;50.79;101926.16;4994091;28;20448;-82
2022/05/09 10:58:57;;;;;;;9.75;7.35;;;;;;;23.12;49.27;101920.09;4978864;28;20056;-84
2022/05/09 11:02:04;;;;;;;9.02;8.13;;;;;;;23.43;50.00;101925.28;5023215;28;20411;-84
2022/05/09 11:04:37;;;;;;;11.97;9.33;;;;;;;23.14;50.73;101828.66;4977979;28;20510;-85
2022/05/09 11:07:46;;;;;;;12.55;9.25;;;;;;;24.07;49.72;101935.41;5005647;28;20053;-85
2022/05/09 11:10:38;;;;;;;9.68;8.75;;;;;;;24.33;47.57;101930.44;4924115;28;20060;-83
2022/05/09 11:13:08;;;;;;;9.60;8.68;;;;;;;24.18;47.21;101930.53;5022114;28;20130;-85
2022/05/09 11:15:42;;;;;;;10.55;8.57;;;;;;;23.60;47.99;101822.09;5007081;28;20101;-85
2022/05/09 11:18:35;;;;;;;10.25;7.75;;;;;;;24.35;48.42;101923.78;5006750;28;20482;-85
2022/05/09 11:21:29;;;;;;;8.07;7.25;;;;;;;24.28;47.88;101920.19;5006191;28;20086;-83
2022/05/09 11:23:59;;;;;;;7.85;6.95;;;;;;;23.18;46.88;101758.69;5005497;28;20054;-85
2022/05/09 11:26:45;;;;;;;7.50;6.60;;;;;;;23.62;45.36;101788.34;5005567;28;20431;-83
2022/05/09 11:29:55;;;;;;;7.03;6.40;;;;;;;24.79;44.34;101914.53;5015877;28;20260;-84
2022/05/09 11:32:36;;;;;;;7.55;6.75;;;;;;;25.06;44.57;101920.97;5005504;28;20104;-84
2022/05/09 11:35:35;;;;;;;8.88;6.35;;;;;;;25.11;43.72;101879.63;5005259;28;20408;-84
2022/05/09 11:38:17;;;;;;;10.13;6.63;;;;;;;25.50;43.92;101916.19;4970529;28;20528;-85
2022/05/09 11:41:14;;;;;;;7.47;6.78;;;;;;;25.35;43.57;101849.22;4993991;28;20058;-86
2022/05/09 11:44:11;;;;;;;7.72;7.00;;;;;;;25.99;42.33;101912.34;4984302;28;20591;-83
2022/05/09 11:46:56;;;;;;;7.95;7.07;;;;;;;26.08;42.97;101911.13;4999791;28;20057;-85